createdAt,value
2018-10-19T00:00:09.469Z,122.13
2018-10-19T00:02:38.032Z,124.67
2018-10-19T00:05:06.495Z,127.47
2018-10-19T00:07:34.787Z,132.40
2018-10-19T00:10:03.113Z,142.70
2018-10-19T00:12:31.506Z,139.27
2018-10-19T00:14:59.903Z,125.03
2018-10-19T00:17:28.308Z,124.93
2018-10-19T00:19:57.589Z,125.60
2018-10-19T00:22:25.930Z,118.00
2018-10-19T00:24:54.300Z,119.27
2018-10-19T00:27:22.633Z,119.13
2018-10-19T00:29:50.978Z,133.33
2018-10-19T00:32:19.314Z,124.83
2018-10-19T00:34:47.653Z,123.43
2018-10-19T00:37:16.014Z,130.83
2018-10-19T00:39:44.404Z,132.63
2018-10-19T00:42:12.787Z,122.70
2018-10-19T00:44:41.119Z,123.80
2018-10-19T00:47:09.481Z,121.67
2018-10-19T00:49:37.901Z,120.17
2018-10-19T00:52:06.305Z,126.57
2018-10-19T00:54:34.605Z,125.87
2018-10-19T00:57:02.935Z,122.97
2018-10-19T00:59:31.411Z,133.77
2018-10-19T01:01:59.806Z,126.60
2018-10-19T01:04:28.357Z,129.80
2018-10-19T01:06:56.683Z,131.20
2018-10-19T01:09:25.007Z,129.90
2018-10-19T01:11:53.337Z,129.67
2018-10-19T01:14:21.649Z,122.47
2018-10-19T01:16:50.135Z,137.57
2018-10-19T01:19:18.479Z,136.07
2018-10-19T01:21:46.807Z,126.87
2018-10-19T01:24:15.132Z,124.40
2018-10-19T01:26:43.445Z,124.47
2018-10-19T01:29:11.867Z,140.20
2018-10-19T01:31:41.010Z,172.73
2018-10-19T01:34:09.530Z,185.67
2018-10-19T01:36:44.981Z,197.03
2018-10-19T01:39:14.091Z,195.10
2018-10-19T01:41:43.949Z,213.30
2018-10-19T01:44:12.384Z,191.30
2018-10-19T01:46:46.085Z,189.87
2018-10-19T01:49:14.399Z,154.83
2018-10-19T01:51:42.986Z,157.20
2018-10-19T01:54:11.302Z,141.93
2018-10-19T01:56:39.787Z,152.50
2018-10-19T01:59:08.182Z,157.87
2018-10-19T02:01:36.542Z,188.83
2018-10-19T02:04:05.053Z,203.67
2018-10-19T02:06:33.362Z,201.23
2018-10-19T02:09:01.855Z,203.17
2018-10-19T02:11:30.354Z,244.53
2018-10-19T02:13:58.654Z,240.43
2018-10-19T02:16:26.987Z,201.17
2018-10-19T02:18:55.304Z,171.13
2018-10-19T02:21:23.652Z,153.10
2018-10-19T02:23:52.095Z,136.93
2018-10-19T02:26:21.465Z,140.80
2018-10-19T02:28:49.783Z,145.27
2018-10-19T02:31:18.100Z,142.97
2018-10-19T02:33:46.511Z,194.17
2018-10-19T02:36:14.853Z,239.23
2018-10-19T02:38:43.200Z,307.27
2018-10-19T02:41:11.681Z,278.50
2018-10-19T02:43:39.937Z,295.10
2018-10-19T02:46:08.226Z,273.47
2018-10-19T02:48:36.663Z,270.30
2018-10-19T02:51:04.995Z,266.07
2018-10-19T02:53:33.307Z,284.40
2018-10-19T02:56:01.770Z,269.77
2018-10-19T02:58:30.109Z,252.87
2018-10-19T03:00:58.486Z,260.07
2018-10-19T03:03:26.802Z,274.60
2018-10-19T03:05:55.132Z,257.80
2018-10-19T03:08:23.573Z,244.40
2018-10-19T03:10:51.990Z,273.30
2018-10-19T03:13:20.346Z,265.30
2018-10-19T03:15:48.646Z,246.27
2018-10-19T03:18:17.010Z,272.20
2018-10-19T03:20:45.352Z,245.47
2018-10-19T03:23:13.816Z,236.63
2018-10-19T03:25:42.275Z,240.33
2018-10-19T03:28:10.610Z,240.30
2018-10-19T03:30:38.931Z,218.13
2018-10-19T03:33:07.326Z,219.77
2018-10-19T03:35:35.768Z,236.17
2018-10-19T03:38:04.265Z,238.80
2018-10-19T03:40:33.656Z,227.37
2018-10-19T03:43:02.024Z,241.13
2018-10-19T03:45:30.374Z,198.20
2018-10-19T03:47:58.685Z,203.93
2018-10-19T03:50:27.106Z,232.53
2018-10-19T03:52:55.800Z,187.40
2018-10-19T03:55:24.227Z,226.43
2018-10-19T03:57:52.604Z,208.93
2018-10-19T04:00:20.967Z,206.77
2018-10-19T04:02:49.321Z,191.40
2018-10-19T04:05:17.719Z,205.60
2018-10-19T04:07:46.040Z,218.30
2018-10-19T04:10:14.435Z,214.53
2018-10-19T04:12:42.815Z,234.23
2018-10-19T04:15:11.323Z,233.40
2018-10-19T04:17:39.736Z,246.33
2018-10-19T04:20:08.047Z,243.60
2018-10-19T04:22:36.332Z,247.73
2018-10-19T04:25:06.042Z,279.17
2018-10-19T04:27:34.527Z,216.63
2018-10-19T04:30:02.917Z,237.77
2018-10-19T04:32:31.264Z,240.93
2018-10-19T04:34:59.659Z,214.73
2018-10-19T04:37:27.981Z,267.10
2018-10-19T04:39:56.458Z,212.87
2018-10-19T04:42:25.017Z,256.03
2018-10-19T04:44:53.370Z,264.97
2018-10-19T04:47:21.663Z,249.67
2018-10-19T04:49:49.967Z,335.60
2018-10-19T04:52:18.380Z,270.00
2018-10-19T04:54:46.764Z,298.93
2018-10-19T04:57:15.171Z,290.47
2018-10-19T04:59:43.515Z,256.83
2018-10-19T05:02:11.813Z,255.27
2018-10-19T05:04:40.230Z,264.07
2018-10-19T05:07:08.541Z,289.03
2018-10-19T05:09:43.584Z,261.83
2018-10-19T05:12:11.906Z,263.47
2018-10-19T05:14:41.080Z,240.80
2018-10-19T05:17:09.479Z,253.10
2018-10-19T05:19:37.745Z,227.03
2018-10-19T05:25:19.944Z,247.87
2018-10-19T05:27:48.245Z,238.53
2018-10-19T05:30:16.558Z,230.80
2018-10-19T05:32:45.170Z,250.93
2018-10-19T05:35:13.522Z,263.93
2018-10-19T05:37:42.189Z,295.93
2018-10-19T05:40:11.129Z,242.93
2018-10-19T05:42:41.312Z,250.00
2018-10-19T05:45:10.889Z,235.00
2018-10-19T05:47:39.314Z,220.33
2018-10-19T05:50:08.600Z,219.43
2018-10-19T05:52:37.515Z,236.80
2018-10-19T05:55:05.928Z,217.53
2018-10-19T05:57:35.003Z,232.07
2018-10-19T06:00:04.006Z,222.23
2018-10-19T06:02:32.904Z,209.03
2018-10-19T06:05:01.324Z,229.37
2018-10-19T06:07:29.534Z,225.23
2018-10-19T06:09:57.894Z,204.30
2018-10-19T06:12:26.161Z,213.10
2018-10-19T06:14:54.416Z,204.97
2018-10-19T06:17:22.767Z,209.97
2018-10-19T06:19:51.026Z,211.47
2018-10-19T06:22:19.333Z,223.23
2018-10-19T06:24:47.613Z,218.37
2018-10-19T06:27:15.889Z,218.00
2018-10-19T06:29:44.211Z,225.77
2018-10-19T06:32:12.595Z,222.30
2018-10-19T06:34:40.840Z,208.90
2018-10-19T06:37:09.180Z,204.60
2018-10-19T06:39:37.533Z,201.63
2018-10-19T06:42:05.950Z,196.77
2018-10-19T06:44:34.230Z,203.77
2018-10-19T06:47:02.537Z,208.23
2018-10-19T06:49:30.810Z,213.07
2018-10-19T06:51:59.110Z,197.90
2018-10-19T06:54:27.426Z,206.53
2018-10-19T06:56:55.737Z,204.03
2018-10-19T06:59:24.029Z,191.90
2018-10-19T07:01:52.360Z,193.40
2018-10-19T07:04:20.660Z,173.97
2018-10-19T07:06:49.058Z,187.87
2018-10-19T07:09:17.331Z,229.83
2018-10-19T07:11:45.608Z,193.23
2018-10-19T07:14:14.010Z,185.70
2018-10-19T07:16:42.233Z,209.13
2018-10-19T07:19:10.665Z,195.97
2018-10-19T07:21:40.136Z,191.67
2018-10-19T07:24:08.426Z,187.90
2018-10-19T07:26:36.976Z,187.17
2018-10-19T07:29:05.387Z,192.10
2018-10-19T07:31:33.648Z,189.47
2018-10-19T07:34:02.044Z,198.20
2018-10-19T07:36:30.441Z,193.37
2018-10-19T07:38:58.653Z,178.97
2018-10-19T07:41:26.959Z,186.07
2018-10-19T07:43:55.257Z,182.90
2018-10-19T07:46:23.588Z,170.63
2018-10-19T07:48:52.108Z,179.73
2018-10-19T07:51:21.005Z,163.33
2018-10-19T07:53:49.245Z,160.53
2018-10-19T07:56:17.613Z,167.33
2018-10-19T07:58:45.863Z,163.20
2018-10-19T08:01:14.191Z,153.97
2018-10-19T08:03:42.462Z,149.13
2018-10-19T08:06:10.724Z,142.23
2018-10-19T08:08:39.047Z,142.77
2018-10-19T08:11:07.437Z,141.93
2018-10-19T08:13:35.721Z,141.60
2018-10-19T08:16:03.991Z,139.80
2018-10-19T08:18:32.305Z,130.83
2018-10-19T08:21:00.713Z,127.03
2018-10-19T08:23:28.973Z,121.67
2018-10-19T08:25:57.279Z,117.73
2018-10-19T08:28:25.505Z,126.43
2018-10-19T08:30:53.768Z,139.60
2018-10-19T08:33:23.098Z,143.00
2018-10-19T08:35:51.776Z,132.73
2018-10-19T08:38:20.067Z,124.50
2018-10-19T08:40:48.354Z,121.83
2018-10-19T08:43:16.675Z,134.50
2018-10-19T08:45:45.001Z,125.67
2018-10-19T08:48:13.333Z,121.47
2018-10-19T08:50:41.612Z,127.60
2018-10-19T08:53:09.930Z,123.07
2018-10-19T08:55:38.172Z,128.53
2018-10-19T08:58:06.657Z,128.50
2018-10-19T09:00:34.937Z,122.90
2018-10-19T09:03:03.350Z,134.33
2018-10-19T09:05:31.650Z,122.60
2018-10-19T09:07:59.904Z,120.77
2018-10-19T09:10:28.249Z,133.60
2018-10-19T09:12:56.625Z,130.90
2018-10-19T09:15:24.885Z,118.37
2018-10-19T09:17:53.174Z,135.83
2018-10-19T09:20:21.449Z,126.70
2018-10-19T09:22:49.782Z,120.27
2018-10-19T09:25:18.044Z,130.57
2018-10-19T09:27:46.300Z,136.63
2018-10-19T09:30:14.555Z,138.63
2018-10-19T09:32:42.840Z,133.83
2018-10-19T09:35:11.207Z,130.03
2018-10-19T09:37:39.431Z,117.03
2018-10-19T09:40:07.750Z,131.07
2018-10-19T09:42:35.976Z,126.33
2018-10-19T09:45:04.545Z,127.60
2018-10-19T09:47:32.839Z,140.17
2018-10-19T09:50:01.158Z,129.87
2018-10-19T09:52:29.414Z,124.60
2018-10-19T09:54:57.680Z,117.50
2018-10-19T09:57:26.026Z,120.77
2018-10-19T09:59:54.429Z,134.90
2018-10-19T10:02:22.674Z,119.57
2018-10-19T10:04:50.916Z,121.60
2018-10-19T10:07:19.184Z,117.23
2018-10-19T10:09:47.445Z,131.67
2018-10-19T10:12:15.793Z,127.37
2018-10-19T10:14:44.107Z,125.27
2018-10-19T10:17:12.461Z,133.20
2018-10-19T10:19:40.702Z,132.20
2018-10-19T10:22:09.011Z,127.33
2018-10-19T10:24:37.435Z,133.83
2018-10-19T10:27:05.736Z,129.00
2018-10-19T10:29:34.012Z,127.60
2018-10-19T10:32:02.266Z,132.07
2018-10-19T10:34:30.561Z,127.53
2018-10-19T10:36:58.977Z,127.30
2018-10-19T10:39:27.294Z,120.07
2018-10-19T10:41:55.564Z,125.83
2018-10-19T10:44:23.809Z,114.90
2018-10-19T10:46:52.148Z,120.30
2018-10-19T10:49:20.420Z,115.90
2018-10-19T10:51:48.686Z,112.97
2018-10-19T10:54:16.955Z,106.47
2018-10-19T10:56:45.197Z,104.43
2018-10-19T10:59:13.462Z,100.90
2018-10-19T11:01:41.840Z,107.53
2018-10-19T11:04:10.192Z,111.73
2018-10-19T11:06:38.475Z,106.37
2018-10-19T11:09:08.222Z,102.13
2018-10-19T11:11:36.481Z,98.40
2018-10-19T11:14:04.795Z,91.63
2018-10-19T11:16:33.139Z,97.67
2018-10-19T11:19:01.448Z,92.63
2018-10-19T11:21:29.712Z,90.83
2018-10-19T11:23:58.018Z,98.13
2018-10-19T11:26:26.341Z,98.50
2018-10-19T11:28:54.601Z,100.63
2018-10-19T11:31:22.855Z,90.07
2018-10-19T11:33:51.173Z,97.77
2018-10-19T11:36:19.429Z,101.13
2018-10-19T11:38:47.686Z,88.87
2018-10-19T11:41:15.915Z,89.50
2018-10-19T11:43:44.225Z,84.47
2018-10-19T11:46:12.528Z,88.10
2018-10-19T11:48:40.791Z,83.97
2018-10-19T11:51:09.093Z,86.87
2018-10-19T11:53:37.442Z,92.03
2018-10-19T11:56:05.751Z,77.90
2018-10-19T11:58:34.022Z,74.30
2018-10-19T12:01:02.313Z,78.97
2018-10-19T12:03:30.648Z,76.20
2018-10-19T12:05:58.990Z,87.17
2018-10-19T12:08:27.263Z,84.00
2018-10-19T12:10:55.521Z,123.73
2018-10-19T12:13:23.774Z,85.47
2018-10-19T12:15:52.072Z,65.13
2018-10-19T12:18:20.378Z,60.33
2018-10-19T12:20:48.685Z,61.33
2018-10-19T12:23:16.937Z,60.27
2018-10-19T12:25:45.178Z,58.10
2018-10-19T12:28:13.477Z,57.20
2018-10-19T12:30:41.716Z,59.57
2018-10-19T12:33:10.084Z,56.53
2018-10-19T12:35:38.406Z,57.93
2018-10-19T12:38:06.619Z,58.33
2018-10-19T12:40:34.927Z,61.47
2018-10-19T12:43:03.224Z,126.87
2018-10-19T12:46:36.103Z,68.87
2018-10-19T12:49:04.547Z,67.17
2018-10-19T12:51:32.889Z,63.53
2018-10-19T12:54:01.463Z,58.93
2018-10-19T12:56:29.553Z,63.27
2018-10-19T12:58:57.920Z,66.07
2018-10-19T13:01:27.457Z,60.40
2018-10-19T13:03:55.725Z,63.67
2018-10-19T13:06:23.988Z,60.03
2018-10-19T13:08:52.640Z,60.13
2018-10-19T13:11:21.212Z,57.00
2018-10-19T13:13:49.449Z,57.60
2018-10-19T13:16:17.761Z,55.13
2018-10-19T13:18:46.005Z,55.10
2018-10-19T13:21:14.393Z,56.17
2018-10-19T13:23:42.689Z,56.40
2018-10-19T13:26:10.985Z,56.43
2018-10-19T13:28:39.261Z,53.50
2018-10-19T13:31:07.537Z,56.73
2018-10-19T13:33:35.805Z,55.73
2018-10-19T13:36:04.163Z,55.77
2018-10-19T13:38:32.464Z,60.07
2018-10-19T13:41:00.703Z,60.30
2018-10-19T13:43:28.966Z,62.03
2018-10-19T13:45:57.280Z,63.60
2018-10-19T13:48:25.565Z,63.67
2018-10-19T13:50:53.898Z,60.57
2018-10-19T13:53:22.212Z,64.30
2018-10-19T13:55:50.692Z,64.73
2018-10-19T13:58:18.994Z,62.13
2018-10-19T14:00:47.242Z,61.70
2018-10-19T14:03:15.602Z,65.20
2018-10-19T14:05:43.928Z,66.37
2018-10-19T14:08:12.226Z,59.07
2018-10-19T14:10:40.463Z,60.50
2018-10-19T14:13:08.714Z,68.47
2018-10-19T14:15:36.960Z,70.53
2018-10-19T14:18:05.398Z,72.70
2018-10-19T14:20:33.711Z,70.33
2018-10-19T14:23:01.998Z,63.63
2018-10-19T14:25:30.297Z,66.30
2018-10-19T14:27:58.549Z,71.53
2018-10-19T14:30:26.827Z,64.57
2018-10-19T14:32:55.146Z,65.77
2018-10-19T14:35:23.446Z,74.03
2018-10-19T14:37:51.705Z,72.23
2018-10-19T14:40:20.668Z,68.93
2018-10-19T14:42:49.061Z,66.37
2018-10-19T14:45:17.882Z,75.00
2018-10-19T14:47:47.008Z,71.67
2018-10-19T14:50:16.430Z,67.43
2018-10-19T14:52:44.739Z,70.03
2018-10-19T14:55:14.196Z,78.43
2018-10-19T14:57:42.484Z,74.20
2018-10-19T15:00:12.464Z,85.63
2018-10-19T15:02:40.916Z,71.70
2018-10-19T15:05:10.745Z,82.70
2018-10-19T15:07:39.333Z,87.67
2018-10-19T15:10:08.705Z,98.43
2018-10-19T15:12:36.917Z,88.80
2018-10-19T15:15:05.415Z,96.63
2018-10-19T15:17:33.646Z,90.03
2018-10-19T15:20:02.161Z,89.67
2018-10-19T15:22:30.486Z,80.50
2018-10-19T15:24:59.119Z,87.20
2018-10-19T15:27:27.399Z,90.03
2018-10-19T15:29:55.771Z,87.90
2018-10-19T15:32:24.103Z,88.67
2018-10-19T15:34:52.469Z,88.27
2018-10-19T15:37:20.737Z,94.00
2018-10-19T15:39:48.996Z,88.80
2018-10-19T15:42:17.294Z,88.77
2018-10-19T15:44:48.189Z,84.37
2018-10-19T15:47:16.565Z,88.53
2018-10-19T15:49:44.839Z,84.03
2018-10-19T15:52:13.115Z,82.17
2018-10-19T15:54:41.379Z,84.73
2018-10-19T15:57:09.716Z,87.87
2018-10-19T15:59:38.147Z,90.23
2018-10-19T16:02:06.452Z,87.03
2018-10-19T16:04:34.713Z,89.17
2018-10-19T16:07:02.967Z,85.07
2018-10-19T16:09:31.213Z,92.83
2018-10-19T16:11:59.523Z,91.87
2018-10-19T16:14:33.605Z,87.77
2018-10-19T16:17:02.987Z,100.70
2018-10-19T16:19:31.494Z,95.03
2018-10-19T16:22:00.706Z,100.93
2018-10-19T16:24:29.021Z,97.60
2018-10-19T16:26:58.218Z,97.13
2018-10-19T16:29:26.828Z,95.93
2018-10-19T16:31:55.263Z,97.70
2018-10-19T16:34:23.634Z,102.27
2018-10-19T16:36:51.969Z,110.10
2018-10-19T16:39:20.309Z,117.60
2018-10-19T16:41:48.825Z,108.60
2018-10-19T16:44:17.219Z,103.10
2018-10-19T16:46:45.645Z,109.30
2018-10-19T16:49:14.040Z,112.23
2018-10-19T16:51:42.385Z,112.63
2018-10-19T16:54:11.900Z,109.33
2018-10-19T16:56:40.284Z,116.43
2018-10-19T16:59:11.464Z,110.93
2018-10-19T17:01:40.430Z,108.97
2018-10-19T17:04:09.478Z,117.03
2018-10-19T17:06:37.947Z,111.57
2018-10-19T17:09:08.326Z,139.47
2018-10-19T17:11:36.793Z,134.47
2018-10-19T17:14:05.293Z,119.10
2018-10-19T17:16:33.838Z,130.13
2018-10-19T17:19:09.138Z,125.63
2018-10-19T17:21:39.172Z,122.43
2018-10-19T17:24:07.586Z,125.73
2018-10-19T17:26:36.171Z,125.37
2018-10-19T17:29:05.188Z,124.20
2018-10-19T17:31:33.911Z,130.90
2018-10-19T17:34:02.765Z,162.83
2018-10-19T17:36:32.006Z,142.40
2018-10-19T17:39:00.412Z,136.10
2018-10-19T17:41:28.769Z,133.30
2018-10-19T17:43:57.151Z,129.80
2018-10-19T17:46:25.517Z,138.33
2018-10-19T17:48:54.002Z,135.47
2018-10-19T17:51:22.350Z,143.40
2018-10-19T17:53:56.879Z,134.97
2018-10-19T17:56:25.257Z,145.70
2018-10-19T17:58:54.605Z,148.60
2018-10-19T18:01:23.323Z,149.83
2018-10-19T18:03:52.057Z,200.93
2018-10-19T18:06:24.474Z,176.63
2018-10-19T18:08:55.044Z,170.63
2018-10-19T18:11:27.595Z,175.17
2018-10-19T18:13:59.930Z,156.80
2018-10-19T18:16:41.360Z,149.60
2018-10-19T18:19:10.256Z,167.67
2018-10-19T18:21:45.105Z,174.47
2018-10-19T18:24:15.423Z,185.37
2018-10-19T18:26:46.397Z,169.20
2018-10-19T18:29:18.345Z,143.87
2018-10-19T18:31:46.902Z,129.90
2018-10-19T18:34:18.772Z,133.00
2018-10-19T18:36:48.000Z,129.50
2018-10-19T18:39:16.376Z,136.13
2018-10-19T18:41:45.139Z,136.63
2018-10-19T18:44:13.660Z,127.47
2018-10-19T18:46:44.007Z,123.77
2018-10-19T18:49:12.487Z,127.73
2018-10-19T18:51:40.993Z,131.33
2018-10-19T18:54:09.471Z,120.03
2018-10-19T18:56:37.769Z,125.73
2018-10-19T18:59:06.276Z,120.20
2018-10-19T19:01:34.621Z,122.90
2018-10-19T19:04:02.998Z,118.97
2018-10-19T19:06:31.502Z,109.20
2018-10-19T19:08:59.931Z,117.43
2018-10-19T19:11:28.351Z,107.80
2018-10-19T19:13:56.733Z,121.13
2018-10-19T19:16:27.155Z,131.87
2018-10-19T19:18:55.528Z,103.30
2018-10-19T19:21:23.983Z,125.90
2018-10-19T19:23:58.030Z,127.10
2018-10-19T19:26:27.167Z,114.60
2018-10-19T19:28:55.846Z,116.13
2018-10-19T19:31:24.298Z,111.63
2018-10-19T19:33:58.083Z,119.10
2018-10-19T19:36:26.450Z,152.63
2018-10-19T19:38:54.815Z,139.37
2018-10-19T19:41:28.412Z,134.10
2018-10-19T19:43:56.799Z,140.40
2018-10-19T19:46:25.199Z,150.70
2018-10-19T19:48:58.896Z,136.83
2018-10-19T19:51:27.217Z,162.20
2018-10-19T19:53:55.588Z,143.63
2018-10-19T19:56:23.900Z,141.63
2018-10-19T19:58:52.244Z,141.40
2018-10-19T20:01:20.569Z,163.27
2018-10-19T20:03:48.875Z,173.97
2018-10-19T20:06:17.248Z,150.33
2018-10-19T20:08:45.683Z,148.03
2018-10-19T20:11:14.130Z,152.47
2018-10-19T20:13:42.481Z,149.23
2018-10-19T20:16:10.771Z,156.77
2018-10-19T20:18:39.102Z,203.27
2018-10-19T20:21:07.427Z,215.93
2018-10-19T20:23:36.588Z,194.40
2018-10-19T20:26:05.264Z,197.80
2018-10-19T20:28:33.658Z,201.00
2018-10-19T20:31:03.105Z,206.47
2018-10-19T20:33:31.602Z,194.00
2018-10-19T20:36:00.100Z,179.00
2018-10-19T20:38:28.483Z,178.27
2018-10-19T20:40:56.968Z,172.30
2018-10-19T20:43:25.238Z,170.23
2018-10-19T20:45:53.622Z,171.30
2018-10-19T20:51:02.003Z,159.43
2018-10-19T20:56:16.726Z,153.17
2018-10-19T20:58:46.088Z,159.10
2018-10-19T21:01:21.627Z,155.87
2018-10-19T21:03:54.023Z,161.50
2018-10-19T21:18:53.227Z,164.10
2018-10-19T21:33:22.816Z,148.27
2018-10-19T21:35:57.537Z,149.33
2018-10-19T21:38:27.298Z,150.10
2018-10-19T21:40:57.291Z,154.97
2018-10-19T21:43:28.551Z,146.83
2018-10-19T21:46:06.947Z,136.63
2018-10-19T21:54:12.230Z,154.23
2018-10-19T21:56:42.920Z,142.37
2018-10-19T21:59:17.483Z,140.63
2018-10-19T22:02:02.007Z,134.97
2018-10-19T22:04:36.007Z,135.77
2018-10-19T22:07:04.393Z,147.73
2018-10-19T22:09:34.796Z,141.43
2018-10-19T22:12:06.398Z,138.77
2018-10-19T22:17:13.627Z,141.00
2018-10-19T22:19:47.231Z,141.27
2018-10-19T22:22:19.076Z,146.40
2018-10-19T22:28:15.895Z,133.77
2018-10-19T22:30:48.464Z,131.33
2018-10-19T22:33:25.306Z,163.43
2018-10-19T22:35:56.210Z,145.37
2018-10-19T22:38:28.712Z,144.97
2018-10-19T22:40:57.119Z,160.87
2018-10-19T22:43:26.145Z,146.97
2018-10-19T22:45:55.665Z,125.87
2018-10-19T22:48:26.986Z,134.83
2018-10-19T22:51:02.700Z,130.57
2018-10-19T22:56:35.013Z,136.97
2018-10-19T22:59:04.341Z,129.20
2018-10-19T23:01:33.949Z,134.70
2018-10-19T23:04:05.953Z,136.10
2018-10-19T23:06:35.198Z,156.13
2018-10-19T23:09:04.299Z,161.67
2018-10-19T23:11:33.490Z,197.87
2018-10-19T23:14:01.795Z,175.27
2018-10-19T23:16:31.763Z,174.70
2018-10-19T23:19:00.429Z,228.17
2018-10-19T23:21:28.869Z,199.73
2018-10-19T23:23:57.284Z,172.07
2018-10-19T23:26:25.708Z,175.53
2018-10-19T23:28:54.024Z,162.23
2018-10-19T23:31:22.480Z,172.70
2018-10-19T23:33:50.845Z,179.57
2018-10-19T23:36:19.453Z,161.07
2018-10-19T23:38:47.762Z,173.40
2018-10-19T23:41:16.171Z,206.53
2018-10-19T23:43:44.494Z,213.57
2018-10-19T23:46:12.763Z,232.37
2018-10-19T23:48:41.132Z,202.93
2018-10-19T23:51:09.434Z,192.33
2018-10-19T23:53:37.841Z,196.30
2018-10-19T23:56:06.198Z,184.87
2018-10-19T23:58:34.601Z,214.20
